createdAt,value
2022-11-19T00:04:37.820Z,9.58
2022-11-19T00:09:39.376Z,9.62
2022-11-19T00:14:41.158Z,9.60
2022-11-19T00:19:42.739Z,9.65
2022-11-19T00:24:44.278Z,9.60
2022-11-19T00:29:45.999Z,9.63
2022-11-19T00:34:47.776Z,9.61
2022-11-19T00:39:49.512Z,9.60
2022-11-19T00:44:51.359Z,9.64
2022-11-19T00:49:53.025Z,9.58
2022-11-19T00:54:54.626Z,9.61
2022-11-19T00:59:56.299Z,9.61
2022-11-19T01:04:57.945Z,9.59
2022-11-19T01:09:59.753Z,9.58
2022-11-19T01:15:01.339Z,9.61
2022-11-19T01:20:03.107Z,9.61
2022-11-19T01:25:05.136Z,9.62
2022-11-19T01:30:07.681Z,9.63
2022-11-19T01:35:09.434Z,9.62
2022-11-19T01:40:11.416Z,9.60
2022-11-19T01:45:33.220Z,9.59
2022-11-19T01:50:41.418Z,9.58
2022-11-19T01:55:44.362Z,9.61
2022-11-19T02:00:46.962Z,9.67
2022-11-19T02:05:48.690Z,9.71
2022-11-19T02:11:03.443Z,9.68
2022-11-19T02:16:40.672Z,9.67
2022-11-19T02:22:08.603Z,9.78
2022-11-19T02:27:46.674Z,9.63
2022-11-19T02:32:58.704Z,9.73
2022-11-19T02:38:27.898Z,9.69
2022-11-19T02:43:35.944Z,9.38
2022-11-19T02:48:42.041Z,9.27
2022-11-19T02:53:46.709Z,9.25
2022-11-19T02:58:52.622Z,9.18
2022-11-19T03:03:54.769Z,9.31
2022-11-19T03:08:56.516Z,9.29
2022-11-19T03:14:19.247Z,9.10
2022-11-19T03:19:42.951Z,8.96
2022-11-19T03:24:51.813Z,8.95
2022-11-19T03:29:57.944Z,9.00
2022-11-19T03:35:04.809Z,8.65
2022-11-19T03:40:08.367Z,8.42
2022-11-19T03:45:19.902Z,8.08
2022-11-19T03:50:25.246Z,7.35
2022-11-19T03:55:34.362Z,7.13
2022-11-19T04:00:35.988Z,7.04
2022-11-19T04:05:37.531Z,6.92
2022-11-19T04:10:39.137Z,6.87
2022-11-19T04:15:40.710Z,6.74
2022-11-19T04:20:45.776Z,6.39
2022-11-19T04:25:47.449Z,6.46
2022-11-19T04:30:49.006Z,6.08
2022-11-19T04:35:50.539Z,6.03
2022-11-19T04:40:52.170Z,5.98
2022-11-19T04:45:53.945Z,5.99
2022-11-19T04:50:55.514Z,5.73
2022-11-19T04:55:57.111Z,5.60
2022-11-19T05:00:58.840Z,5.53
2022-11-19T05:06:00.645Z,5.52
2022-11-19T05:11:02.210Z,5.42
2022-11-19T05:16:04.012Z,5.47
2022-11-19T05:21:05.680Z,5.41
2022-11-19T05:26:07.206Z,5.36
2022-11-19T05:31:09.075Z,5.37
2022-11-19T05:36:10.683Z,5.25
2022-11-19T05:41:12.269Z,5.11
2022-11-19T05:46:13.819Z,4.96
2022-11-19T05:51:16.561Z,4.77
2022-11-19T05:56:18.184Z,4.68
2022-11-19T06:01:27.692Z,4.75
2022-11-19T06:06:29.234Z,4.81
2022-11-19T06:11:30.909Z,4.67
2022-11-19T06:16:32.462Z,4.74
2022-11-19T06:21:34.036Z,4.57
2022-11-19T06:26:35.968Z,4.63
2022-11-19T06:31:37.559Z,4.68
2022-11-19T06:36:43.752Z,4.53
2022-11-19T06:41:50.045Z,4.55
2022-11-19T06:46:51.740Z,4.44
2022-11-19T06:51:53.433Z,4.25
2022-11-19T06:56:55.055Z,4.33
2022-11-19T07:01:56.726Z,4.17
2022-11-19T07:06:58.386Z,4.22
2022-11-19T07:12:00.299Z,4.24
2022-11-19T07:17:05.172Z,4.27
2022-11-19T07:22:06.719Z,4.16
2022-11-19T07:27:08.512Z,4.16
2022-11-19T07:32:10.166Z,4.27
2022-11-19T07:37:11.782Z,4.17
2022-11-19T07:42:13.514Z,4.21
2022-11-19T07:47:15.720Z,4.09
2022-11-19T07:52:17.862Z,3.96
2022-11-19T07:57:20.016Z,4.09
2022-11-19T08:02:21.791Z,4.21
2022-11-19T08:07:23.365Z,4.07
2022-11-19T08:12:24.995Z,4.28
2022-11-19T08:17:31.267Z,4.31
2022-11-19T08:22:32.784Z,4.35
2022-11-19T08:27:34.323Z,4.38
2022-11-19T08:32:36.471Z,4.29
2022-11-19T08:37:38.138Z,4.29
2022-11-19T08:42:39.848Z,4.38
2022-11-19T08:47:41.451Z,4.40
2022-11-19T08:52:46.464Z,4.34
2022-11-19T08:57:48.424Z,4.44
2022-11-19T09:02:50.143Z,4.51
2022-11-19T09:07:51.854Z,4.62
2022-11-19T09:12:53.562Z,4.68
2022-11-19T09:17:55.122Z,4.67
2022-11-19T09:22:56.740Z,4.70
2022-11-19T09:27:58.456Z,4.85
2022-11-19T09:33:00.039Z,4.85
2022-11-19T09:38:01.762Z,4.65
2022-11-19T09:43:28.790Z,4.70
2022-11-19T09:48:38.494Z,4.88
2022-11-19T09:53:55.099Z,5.03
2022-11-19T09:58:59.028Z,5.04
2022-11-19T10:04:00.634Z,5.28
2022-11-19T10:09:23.224Z,5.23
2022-11-19T10:14:50.370Z,5.09
2022-11-19T10:20:01.748Z,5.07
2022-11-19T10:25:17.760Z,5.38
2022-11-19T10:30:25.375Z,5.25
2022-11-19T10:36:07.881Z,5.29
2022-11-19T10:41:22.236Z,5.15
2022-11-19T10:46:25.550Z,5.39
2022-11-19T10:51:39.642Z,5.15
2022-11-19T10:56:42.415Z,5.17
2022-11-19T11:01:47.024Z,5.39
2022-11-19T11:07:03.170Z,5.45
2022-11-19T11:12:12.971Z,5.57
2022-11-19T11:17:30.706Z,5.52
2022-11-19T11:22:33.988Z,5.60
2022-11-19T11:27:38.643Z,5.27
2022-11-19T11:32:41.342Z,5.18
2022-11-19T11:37:43.007Z,5.47
2022-11-19T11:42:46.592Z,5.22
2022-11-19T11:47:50.497Z,5.40
2022-11-19T11:52:54.435Z,5.67
2022-11-19T11:58:24.242Z,5.57
2022-11-19T12:03:25.913Z,5.62
2022-11-19T12:08:55.292Z,5.64
2022-11-19T12:14:11.334Z,5.43
2022-11-19T12:19:31.288Z,5.47
2022-11-19T12:24:39.111Z,5.37
2022-11-19T12:30:11.848Z,5.33
2022-11-19T12:35:46.085Z,5.22
2022-11-19T12:41:17.236Z,5.55
2022-11-19T12:46:49.397Z,5.74
2022-11-19T12:52:03.551Z,5.73
2022-11-19T12:57:33.027Z,5.40
2022-11-19T13:02:42.337Z,5.36
2022-11-19T13:08:06.297Z,5.37
2022-11-19T13:13:14.014Z,5.29
2022-11-19T13:18:19.309Z,5.54
2022-11-19T13:23:38.899Z,5.48
2022-11-19T13:28:50.426Z,5.69
2022-11-19T13:34:35.066Z,5.58
2022-11-19T13:39:52.164Z,5.56
2022-11-19T13:44:53.711Z,5.56
2022-11-19T13:50:05.682Z,5.64
2022-11-19T13:55:42.203Z,5.57
2022-11-19T14:01:07.761Z,5.54
2022-11-19T14:06:35.771Z,5.51
2022-11-19T14:12:07.908Z,5.50
2022-11-19T14:17:28.026Z,5.55
2022-11-19T14:22:39.756Z,5.68
2022-11-19T14:27:42.503Z,5.52
2022-11-19T14:32:50.372Z,5.49
2022-11-19T14:37:55.669Z,5.55
2022-11-19T14:43:00.365Z,5.23
2022-11-19T14:48:03.947Z,5.21
2022-11-19T14:53:18.664Z,5.18
2022-11-19T14:58:24.345Z,5.37
2022-11-19T15:03:28.490Z,5.29
2022-11-19T15:08:46.751Z,5.34
2022-11-19T15:14:09.148Z,5.25
2022-11-19T15:19:46.128Z,5.30
2022-11-19T15:25:12.625Z,5.39
2022-11-19T15:30:27.322Z,5.28
2022-11-19T15:35:59.468Z,5.23
2022-11-19T15:41:03.345Z,5.25
2022-11-19T15:46:11.512Z,5.28
2022-11-19T15:51:16.404Z,5.10
2022-11-19T15:56:18.126Z,5.07
2022-11-19T16:01:21.637Z,5.07
2022-11-19T16:06:27.293Z,5.24
2022-11-19T16:11:32.156Z,5.27
2022-11-19T16:16:33.797Z,5.12
2022-11-19T16:21:39.557Z,5.14
2022-11-19T16:26:43.474Z,5.11
2022-11-19T16:31:45.178Z,5.04
2022-11-19T16:36:47.907Z,5.01
2022-11-19T16:41:51.497Z,5.15
2022-11-19T16:46:53.244Z,5.14
2022-11-19T16:51:54.832Z,5.21
2022-11-19T16:56:56.544Z,5.21
2022-11-19T17:01:58.951Z,5.19
2022-11-19T17:07:00.721Z,5.17
2022-11-19T17:12:02.402Z,5.11
2022-11-19T17:17:03.934Z,5.01
2022-11-19T17:22:15.534Z,5.13
2022-11-19T17:27:33.577Z,5.02
2022-11-19T17:32:41.521Z,4.98
2022-11-19T17:37:43.074Z,4.93
2022-11-19T17:42:44.591Z,5.00
2022-11-19T17:47:46.229Z,4.91
2022-11-19T17:52:47.741Z,4.82
2022-11-19T17:57:49.234Z,4.85
2022-11-19T18:02:50.735Z,4.82
2022-11-19T18:07:52.491Z,4.81
2022-11-19T18:12:54.243Z,4.82
2022-11-19T18:17:55.753Z,4.71
2022-11-19T18:22:57.336Z,4.74
2022-11-19T18:27:59.024Z,4.91
2022-11-19T18:33:00.550Z,4.75
2022-11-19T18:38:02.085Z,4.71
2022-11-19T18:43:03.736Z,4.74
2022-11-19T18:48:05.472Z,4.78
2022-11-19T18:53:09.767Z,4.55
2022-11-19T18:58:11.542Z,4.74
2022-11-19T19:03:13.361Z,4.64
2022-11-19T19:08:15.185Z,4.67
2022-11-19T19:13:16.780Z,4.56
2022-11-19T19:18:18.438Z,4.58
2022-11-19T19:23:20.071Z,4.58
2022-11-19T19:28:21.664Z,4.64
2022-11-19T19:33:23.262Z,4.52
2022-11-19T19:38:25.878Z,4.69
2022-11-19T19:43:29.544Z,4.65
2022-11-19T19:48:31.472Z,4.65
2022-11-19T19:53:33.256Z,4.72
2022-11-19T19:58:34.810Z,4.51
2022-11-19T20:03:36.889Z,4.56
2022-11-19T20:08:39.156Z,4.48
2022-11-19T20:13:41.602Z,4.37
2022-11-19T20:18:44.129Z,4.34
2022-11-19T20:23:46.685Z,4.30
2022-11-19T20:28:53.703Z,4.29
2022-11-19T20:33:58.061Z,4.33
2022-11-19T20:38:59.752Z,4.32
2022-11-19T20:44:02.331Z,4.22
2022-11-19T20:49:04.208Z,4.20
2022-11-19T20:54:06.161Z,4.22
2022-11-19T20:59:08.849Z,4.14
2022-11-19T21:04:11.747Z,4.21
2022-11-19T21:09:13.392Z,4.20
2022-11-19T21:14:14.922Z,4.26
2022-11-19T21:19:16.479Z,4.29
2022-11-19T21:24:17.974Z,4.13
2022-11-19T21:29:19.989Z,4.19
2022-11-19T21:34:21.861Z,4.34
2022-11-19T21:39:23.787Z,4.29
2022-11-19T21:44:25.772Z,4.11
2022-11-19T21:49:27.397Z,4.15
2022-11-19T21:54:28.939Z,4.04
2022-11-19T21:59:30.467Z,4.05
2022-11-19T22:04:32.143Z,4.01
2022-11-19T22:09:33.685Z,4.01
2022-11-19T22:14:35.220Z,4.02
2022-11-19T22:19:36.817Z,4.00
2022-11-19T22:24:38.363Z,4.04
2022-11-19T22:29:39.882Z,3.98
2022-11-19T22:34:41.419Z,4.01
2022-11-19T22:39:42.987Z,4.04
2022-11-19T22:44:44.512Z,4.03
2022-11-19T22:49:46.144Z,4.01
2022-11-19T22:54:47.940Z,4.10
2022-11-19T22:59:49.560Z,3.95
2022-11-19T23:04:51.157Z,3.93
2022-11-19T23:09:52.658Z,3.96
2022-11-19T23:14:54.297Z,4.04
2022-11-19T23:20:04.268Z,4.13
2022-11-19T23:25:06.620Z,4.13
2022-11-19T23:30:08.761Z,4.14
2022-11-19T23:35:10.742Z,4.15
2022-11-19T23:40:12.585Z,4.16
2022-11-19T23:45:14.157Z,4.11
2022-11-19T23:50:15.783Z,4.02
2022-11-19T23:55:17.560Z,3.96
